Time;durP1;ratioP1;P1;durP2;ratioP2;P2;SDS_P1;SDS_P2;PMS_P1;PMS_P2;Temp;Humidity;BMP_temperature;BMP_pressure;BME280_temperature;BME280_humidity;BME280_pressure;Samples;Min_cycle;Max_cycle;Signal;HPM_P1;HPM_P2
2022/01/08 07:59:04;;;;;;;14.95;9.65;;;;;;;1.51;91.30;101030.63;5313031;27;20896;-77
2022/01/08 08:01:36;;;;;;;16.20;10.10;;;;;;;1.52;91.26;101016.72;5315029;28;20040;-77
2022/01/08 08:04:07;;;;;;;14.80;11.20;;;;;;;1.58;91.65;101008.66;5311905;28;20022;-78
2022/01/08 08:06:44;;;;;;;19.95;9.57;;;;;;;1.61;91.74;101000.88;5294446;28;20029;-78
2022/01/08 08:09:15;;;;;;;12.82;9.88;;;;;;;1.61;91.81;101009.06;5316750;28;20427;-78
2022/01/08 08:11:47;;;;;;;18.48;11.93;;;;;;;1.60;91.46;101006.56;5308845;28;20023;-78
2022/01/08 08:14:18;;;;;;;15.05;9.52;;;;;;;1.62;92.18;101005.25;5299358;28;20029;-78
2022/01/08 08:16:49;;;;;;;19.35;10.40;;;;;;;1.64;92.62;101003.16;5313214;28;20093;-77
2022/01/08 08:19:21;;;;;;;12.57;10.35;;;;;;;1.66;92.20;101002.91;5305158;28;20099;-78
2022/01/08 08:21:52;;;;;;;13.23;10.40;;;;;;;1.69;92.33;101003.28;5312841;28;20038;-78
2022/01/08 08:24:23;;;;;;;18.30;10.98;;;;;;;1.69;91.98;100997.00;5294288;28;20059;-78
2022/01/08 08:26:54;;;;;;;15.77;11.23;;;;;;;1.80;92.36;100990.75;5317251;28;20044;-78
2022/01/08 08:29:26;;;;;;;19.27;12.10;;;;;;;1.86;92.18;100989.84;5298490;28;20020;-77
2022/01/08 08:31:57;;;;;;;18.30;11.80;;;;;;;1.93;92.24;100990.59;5290876;28;20024;-77
2022/01/08 08:34:28;;;;;;;19.00;11.55;;;;;;;1.87;91.29;100988.78;5293718;28;20024;-75
2022/01/08 08:36:59;;;;;;;16.05;12.18;;;;;;;1.94;92.02;100992.28;5310799;28;20085;-76
2022/01/08 08:39:31;;;;;;;30.30;18.55;;;;;;;1.99;92.28;100994.31;5314374;28;20019;-77
2022/01/08 08:42:02;;;;;;;20.45;13.35;;;;;;;2.01;92.10;100994.91;5295477;28;20574;-74
2022/01/08 08:44:34;;;;;;;22.67;12.65;;;;;;;2.09;91.84;100989.13;5292757;28;20025;-77
2022/01/08 08:47:06;;;;;;;17.85;13.10;;;;;;;2.02;91.98;100982.94;5290599;28;20120;-78
2022/01/08 08:49:37;;;;;;;16.00;12.18;;;;;;;2.18;91.67;100984.19;5292573;28;20016;-77
2022/01/08 08:52:09;;;;;;;18.23;12.52;;;;;;;2.11;91.63;100981.53;5288588;28;20012;-77
2022/01/08 08:54:41;;;;;;;22.17;12.55;;;;;;;2.14;91.35;100980.25;5307876;28;20379;-77
2022/01/08 08:57:13;;;;;;;17.20;13.10;;;;;;;2.12;91.48;100980.50;5321537;28;20059;-76
2022/01/08 08:59:44;;;;;;;19.13;13.63;;;;;;;2.25;91.17;100978.63;5314801;28;20059;-76
2022/01/08 09:02:15;;;;;;;16.85;13.13;;;;;;;2.23;91.31;100980.78;5332698;28;20026;-78
2022/01/08 09:04:48;;;;;;;19.15;13.65;;;;;;;2.21;91.23;100980.16;5320639;28;20070;-78
2022/01/08 09:07:19;;;;;;;18.50;13.88;;;;;;;2.24;91.67;100979.69;5321893;28;20020;-77
2022/01/08 09:09:50;;;;;;;23.00;15.73;;;;;;;2.33;90.83;100989.25;5313108;28;20032;-78
2022/01/08 09:12:22;;;;;;;22.33;14.15;;;;;;;2.29;90.94;100980.66;5314006;28;20020;-77
2022/01/08 09:14:53;;;;;;;16.85;13.35;;;;;;;2.36;91.17;100988.78;5304344;28;20027;-78
2022/01/08 09:17:25;;;;;;;20.13;13.85;;;;;;;2.30;90.40;100985.09;5322224;28;20024;-77
2022/01/08 09:19:56;;;;;;;24.15;14.68;;;;;;;2.43;90.79;100985.94;5307702;28;20035;-77
2022/01/08 09:22:27;;;;;;;26.10;15.55;;;;;;;2.43;91.95;100978.59;5293209;28;20035;-73
2022/01/08 09:24:59;;;;;;;23.08;15.15;;;;;;;2.62;93.93;100968.41;5319851;28;20089;-72
2022/01/08 09:27:30;;;;;;;15.95;13.23;;;;;;;2.68;91.08;100956.50;5322458;28;20039;-77
2022/01/08 09:30:04;;;;;;;20.52;13.98;;;;;;;2.71;89.59;100950.59;5305339;28;20012;-76
2022/01/08 09:32:35;;;;;;;20.33;14.75;;;;;;;2.71;89.34;100949.72;5303044;28;20028;-77
2022/01/08 09:35:07;;;;;;;22.40;13.65;;;;;;;2.74;89.25;100941.06;5323486;28;20054;-76
2022/01/08 09:37:39;;;;;;;28.38;15.73;;;;;;;2.87;90.17;100932.63;5293655;28;20043;-77
2022/01/08 09:40:17;;;;;;;18.33;13.75;;;;;;;2.88;89.23;100931.53;5303418;28;20025;-77
2022/01/08 09:42:50;;;;;;;19.95;13.73;;;;;;;2.85;89.13;100926.53;5317650;28;20028;-78
2022/01/08 09:45:21;;;;;;;21.88;15.52;;;;;;;2.78;88.44;100923.91;5309590;28;20483;-77
2022/01/08 09:47:54;;;;;;;23.92;14.93;;;;;;;2.79;88.93;100928.31;5316341;28;20161;-77
2022/01/08 09:50:26;;;;;;;23.70;15.23;;;;;;;2.88;89.31;100926.06;5311206;28;20070;-78
2022/01/08 09:52:58;;;;;;;25.52;15.80;;;;;;;2.91;89.16;100920.09;5306906;28;20036;-77
2022/01/08 09:55:30;;;;;;;22.52;14.93;;;;;;;2.96;89.09;100917.47;5300000;28;20040;-78
2022/01/08 09:58:02;;;;;;;20.00;14.95;;;;;;;2.98;88.66;100904.38;5295116;28;20044;-77
2022/01/08 10:00:35;;;;;;;22.33;16.58;;;;;;;3.02;88.57;100900.09;5293921;28;20028;-75
2022/01/08 10:03:18;;;;;;;26.95;17.55;;;;;;;3.09;88.51;100897.22;5309292;28;20151;-79
2022/01/08 10:05:51;;;;;;;23.38;16.02;;;;;;;3.09;88.34;100888.19;5286117;28;20067;-76
2022/01/08 10:08:34;;;;;;;21.38;15.85;;;;;;;3.13;88.45;100882.00;5309258;28;20463;-74
2022/01/08 10:11:07;;;;;;;25.77;15.93;;;;;;;3.17;87.90;100863.16;5309619;28;20568;-72
2022/01/08 10:13:41;;;;;;;31.55;17.27;;;;;;;3.21;88.36;100858.88;5303341;28;20514;-74
2022/01/08 10:19:17;;;;;;;22.02;14.35;;;;;;;3.32;89.01;100847.03;5310097;28;20071;-80
2022/01/08 10:21:53;;;;;;;24.73;15.73;;;;;;;3.36;88.04;100830.94;5317597;28;20024;-77
2022/01/08 10:24:27;;;;;;;19.15;14.13;;;;;;;3.32;87.02;100827.00;5314630;28;20111;-78
2022/01/08 10:27:04;;;;;;;26.85;16.17;;;;;;;3.32;87.62;100819.63;5308735;28;20364;-73
2022/01/08 10:29:35;;;;;;;21.98;14.77;;;;;;;3.32;87.47;100805.91;5304478;28;20032;-72
2022/01/08 10:32:07;;;;;;;26.77;15.63;;;;;;;3.34;87.13;100811.16;5305525;28;20023;-73
2022/01/08 10:34:48;;;;;;;21.95;14.18;;;;;;;3.26;87.20;100813.22;5310597;28;20028;-79
2022/01/08 10:37:19;;;;;;;23.95;14.75;;;;;;;3.38;87.42;100815.94;5310343;28;20106;-77
2022/01/08 10:39:55;;;;;;;22.05;13.90;;;;;;;3.37;87.84;100811.50;5317829;28;20566;-79
2022/01/08 10:42:26;;;;;;;;;;;;;;;3.42;87.47;100800.63;5313631;28;20048;-76
2022/01/08 10:44:57;;;;;;;21.80;13.77;;;;;;;3.29;87.56;100789.97;5292419;28;19952;-76
2022/01/08 10:47:39;;;;;;;19.83;14.90;;;;;;;3.41;87.77;100782.53;5296716;28;20278;-78
2022/01/08 10:50:10;;;;;;;19.25;13.88;;;;;;;3.41;87.25;100771.56;5296641;28;20043;-79
2022/01/08 10:52:48;;;;;;;18.60;13.15;;;;;;;3.41;87.79;100766.09;5297845;28;20502;-80
2022/01/08 10:55:33;;;;;;;19.20;12.43;;;;;;;3.52;88.94;100756.16;5300294;28;20094;-73
2022/01/08 10:58:04;;;;;;;16.10;13.38;;;;;;;3.52;87.24;100760.81;5318316;28;20058;-76
2022/01/08 11:00:35;;;;;;;22.77;13.20;;;;;;;3.45;86.84;100749.97;5313292;28;20475;-78
2022/01/08 11:03:07;;;;;;;21.25;14.55;;;;;;;3.49;87.78;100745.66;5303429;28;20082;-79
2022/01/08 11:06:10;;;;;;;20.13;14.18;;;;;;;3.55;87.39;100738.38;5301213;28;20375;-76
2022/01/08 11:08:58;;;;;;;17.60;11.45;;;;;;;3.41;87.71;100722.22;5274528;28;20450;-76
2022/01/08 11:11:31;;;;;;;15.45;11.10;;;;;;;3.46;87.44;100725.06;5292893;28;20475;-77
2022/01/08 11:14:08;;;;;;;20.77;10.68;;;;;;;3.37;87.44;100720.22;5306918;28;20094;-75
2022/01/08 11:16:39;;;;;;;12.95;10.13;;;;;;;3.39;87.58;100701.59;5302837;28;20103;-74
2022/01/08 11:19:10;;;;;;;16.05;9.70;;;;;;;3.84;92.42;100690.63;5305516;28;20032;-75
2022/01/08 11:21:42;;;;;;;13.63;11.50;;;;;;;3.61;88.50;100686.13;5300280;28;20376;-76
2022/01/08 11:24:16;;;;;;;15.00;10.73;;;;;;;3.68;87.39;100685.94;5307736;28;20066;-77
2022/01/08 11:26:51;;;;;;;12.90;8.38;;;;;;;4.18;91.90;100665.91;5308920;28;20036;-71
2022/01/08 11:29:27;;;;;;;16.48;9.98;;;;;;;4.01;87.07;100667.84;5292641;28;20049;-77
2022/01/08 11:32:00;;;;;;;13.15;10.65;;;;;;;3.95;86.70;100655.13;5298624;28;20032;-80
2022/01/08 11:34:32;;;;;;;13.88;9.98;;;;;;;3.97;86.49;100656.53;5314406;28;20076;-78
2022/01/08 11:37:04;;;;;;;15.52;9.32;;;;;;;3.79;85.40;100656.78;5302784;28;20025;-79
2022/01/08 11:39:36;;;;;;;14.10;8.63;;;;;;;3.73;84.75;100647.63;5297193;28;20027;-77
2022/01/08 11:42:07;;;;;;;15.18;8.25;;;;;;;3.73;85.04;100638.56;5314588;28;20052;-75
2022/01/08 11:44:42;;;;;;;12.50;9.27;;;;;;;3.74;85.74;100632.84;5302283;28;20043;-78
2022/01/08 11:47:17;;;;;;;15.88;8.40;;;;;;;3.76;85.90;100618.88;5304582;28;20020;-78
2022/01/08 11:49:50;;;;;;;13.45;8.63;;;;;;;3.72;85.12;100614.97;5318644;28;20214;-79
2022/01/08 11:52:23;;;;;;;12.68;8.95;;;;;;;3.72;84.91;100609.50;5316027;28;20023;-79
2022/01/08 11:54:55;;;;;;;12.77;9.07;;;;;;;3.69;85.06;100608.09;5302394;28;20025;-79
2022/01/08 11:57:28;;;;;;;10.07;7.25;;;;;;;3.71;84.60;100592.22;5306577;28;20036;-78
2022/01/08 12:00:02;;;;;;;11.93;8.75;;;;;;;3.70;84.90;100587.78;5315141;28;20486;-78
2022/01/08 12:02:36;;;;;;;11.27;7.88;;;;;;;3.73;84.96;100578.22;5306809;28;20345;-78
2022/01/08 12:05:27;;;;;;;16.52;7.97;;;;;;;3.74;85.57;100578.00;5292524;28;20052;-78
2022/01/08 12:08:14;;;;;;;16.25;9.75;;;;;;;3.73;84.71;100576.31;5298128;28;20030;-78
2022/01/08 12:10:58;;;;;;;12.02;7.95;;;;;;;3.73;84.71;100565.34;5309878;28;20015;-78
2022/01/08 12:13:44;;;;;;;10.02;6.85;;;;;;;3.77;84.39;100566.50;5288088;28;20028;-78
2022/01/08 12:16:32;;;;;;;;;;;;;;;3.82;84.77;100552.03;5315691;28;20039;-70
2022/01/08 12:19:05;;;;;;;10.82;6.63;;;;;;;3.78;84.47;100532.50;5296864;28;19923;-67
2022/01/08 12:21:39;;;;;;;11.77;6.55;;;;;;;3.69;84.71;100531.28;5317081;28;20020;-69
2022/01/08 12:24:26;;;;;;;7.40;5.15;;;;;;;3.78;85.03;100505.06;5312980;28;20107;-68
2022/01/08 12:26:59;;;;;;;11.20;5.28;;;;;;;4.01;86.93;100497.69;5300687;28;20040;-69
2022/01/08 12:29:36;;;;;;;6.25;4.93;;;;;;;4.41;88.25;100488.31;5301705;28;20103;-67
2022/01/08 12:32:38;;;;;;;7.50;4.65;;;;;;;4.07;83.42;100472.81;5293198;28;20059;-68
2022/01/08 12:35:16;;;;;;;7.15;5.03;;;;;;;4.15;83.86;100457.81;5293610;28;20036;-69
2022/01/08 12:37:59;;;;;;;5.63;4.15;;;;;;;4.04;82.43;100445.91;5284515;28;20123;-72
2022/01/08 12:40:38;;;;;;;7.57;4.45;;;;;;;4.01;83.09;100437.31;5299990;28;20107;-75
2022/01/08 12:43:29;;;;;;;5.95;4.00;;;;;;;3.96;83.48;100427.13;5306431;28;20052;-75
2022/01/08 12:46:37;;;;;;;7.28;4.90;;;;;;;4.00;84.14;100410.97;5314365;28;20024;-72
2022/01/08 12:49:11;;;;;;;6.10;4.57;;;;;;;3.92;84.67;100410.34;5278258;28;20067;-73
2022/01/08 12:51:49;;;;;;;7.68;4.72;;;;;;;3.95;84.88;100397.22;5321001;28;20024;-73
2022/01/08 12:54:21;;;;;;;10.07;4.53;;;;;;;4.00;85.34;100384.38;5319422;28;20039;-75
2022/01/08 12:56:55;;;;;;;6.85;4.03;;;;;;;4.08;85.46;100385.81;5311027;28;20085;-74
2022/01/08 12:59:31;;;;;;;33.45;18.52;;;;;;;4.07;85.58;100367.72;5312158;28;20035;-73
2022/01/08 13:02:06;;;;;;;6.45;3.60;;;;;;;4.09;85.55;100351.78;5318569;28;20028;-73
2022/01/08 13:04:40;;;;;;;;;;;;;;;4.14;85.67;100349.94;5289262;28;20383;-72
2022/01/08 13:07:11;;;;;;;8.63;4.55;;;;;;;4.04;86.41;100321.56;5303961;28;19932;-72
2022/01/08 13:09:43;;;;;;;5.60;3.50;;;;;;;4.03;86.39;100309.75;5317092;28;20112;-73
2022/01/08 13:12:22;;;;;;;5.03;3.40;;;;;;;4.00;87.10;100307.53;5311078;28;20024;-72
2022/01/08 13:15:02;;;;;;;4.95;3.42;;;;;;;4.02;87.64;100293.56;5290030;28;20029;-73
2022/01/08 13:17:33;;;;;;;8.57;3.88;;;;;;;3.94;88.40;100292.13;5297356;28;20102;-73
2022/01/08 13:20:07;;;;;;;6.15;3.33;;;;;;;3.91;88.63;100282.50;5317547;28;20139;-73
2022/01/08 13:22:38;;;;;;;6.82;3.42;;;;;;;3.89;89.27;100276.44;5305508;28;20052;-73
2022/01/08 13:25:11;;;;;;;4.63;3.42;;;;;;;3.88;89.02;100266.53;5323993;28;20554;-71
2022/01/08 13:27:48;;;;;;;4.22;3.40;;;;;;;3.87;89.76;100267.63;5305320;28;20032;-73
2022/01/08 13:30:25;;;;;;;7.07;4.80;;;;;;;3.84;89.88;100254.44;5311091;28;20047;-70
2022/01/08 13:33:01;;;;;;;5.20;3.70;;;;;;;3.82;89.74;100255.78;5305690;28;20035;-70
2022/01/08 13:35:33;;;;;;;5.20;3.58;;;;;;;3.75;90.39;100245.00;5300737;28;20027;-72
2022/01/08 13:38:04;;;;;;;6.38;4.25;;;;;;;3.79;90.79;100240.66;5317785;28;20036;-73
2022/01/08 13:40:39;;;;;;;6.53;3.35;;;;;;;3.81;90.26;100238.50;5319118;28;20034;-71
2022/01/08 13:43:10;;;;;;;7.15;4.35;;;;;;;3.82;90.69;100228.34;5309403;28;20024;-70
2022/01/08 13:45:52;;;;;;;8.27;3.50;;;;;;;3.70;90.55;100226.59;5298834;28;20161;-71
2022/01/08 13:48:23;;;;;;;5.68;3.20;;;;;;;3.80;91.41;100209.41;5309828;28;20031;-73
2022/01/08 13:50:58;;;;;;;9.57;3.35;;;;;;;3.85;91.45;100201.22;5312118;28;20604;-71
2022/01/08 13:53:29;;;;;;;5.00;3.53;;;;;;;3.78;91.10;100188.81;5294750;28;20025;-73
2022/01/08 13:56:01;;;;;;;6.80;2.90;;;;;;;3.74;90.68;100183.03;5301167;28;20039;-76
2022/01/08 13:58:32;;;;;;;3.97;3.05;;;;;;;3.73;90.56;100173.13;5295611;28;20492;-73
2022/01/08 14:01:09;;;;;;;5.90;3.13;;;;;;;3.80;91.72;100171.00;5319912;28;20413;-73
2022/01/08 14:03:43;;;;;;;8.23;3.10;;;;;;;3.73;91.73;100153.94;5312277;28;20463;-74
2022/01/08 14:06:26;;;;;;;5.10;3.30;;;;;;;3.80;92.28;100149.06;5313266;28;20428;-75
2022/01/08 14:09:00;;;;;;;7.18;3.53;;;;;;;3.77;91.74;100141.34;5322949;28;20024;-75
2022/01/08 14:11:32;;;;;;;6.82;3.42;;;;;;;3.73;91.99;100131.97;5305129;28;20023;-74
2022/01/08 14:14:16;;;;;;;5.10;3.03;;;;;;;3.79;92.32;100125.47;5299826;28;20558;-75
2022/01/08 14:16:48;;;;;;;9.38;6.10;;;;;;;3.80;92.55;100113.41;5321574;28;20024;-75
2022/01/08 14:19:20;;;;;;;3.75;3.35;;;;;;;3.81;92.45;100109.59;5302753;28;20016;-74
2022/01/08 14:21:56;;;;;;;7.07;2.65;;;;;;;3.76;92.38;100103.22;5304031;28;20020;-74
2022/01/08 14:24:32;;;;;;;;;;;;;;;3.84;92.61;100089.03;5312881;28;20156;-74
2022/01/08 14:27:14;;;;;;;;;;;;;;;3.84;92.43;100087.09;5308871;28;19969;-74
2022/01/08 14:30:04;;;;;;;5.07;2.75;;;;;;;3.91;93.48;100078.63;5301677;28;20006;-73
2022/01/08 14:32:36;;;;;;;4.22;3.15;;;;;;;3.80;92.62;100069.50;5309154;28;20426;-74
2022/01/08 14:35:09;;;;;;;4.20;2.95;;;;;;;3.79;92.79;100051.41;5320757;28;20035;-73
2022/01/08 14:37:44;;;;;;;5.60;3.70;;;;;;;3.79;92.74;100048.66;5299140;28;20038;-71
2022/01/08 14:40:17;;;;;;;5.55;3.65;;;;;;;3.73;92.82;100033.25;5292763;28;20031;-70
2022/01/08 14:43:00;;;;;;;7.40;3.70;;;;;;;3.71;93.19;100024.50;5299091;28;20097;-71
2022/01/08 14:45:38;;;;;;;9.27;5.75;;;;;;;3.74;93.72;100023.94;5300228;28;20023;-71
2022/01/08 14:48:23;;;;;;;8.98;6.75;;;;;;;3.73;94.03;100002.25;5305436;28;20026;-71
2022/01/08 14:50:55;;;;;;;3.90;3.50;;;;;;;3.69;94.02;99988.28;5317575;28;20032;-71
2022/01/08 14:53:26;;;;;;;4.72;3.55;;;;;;;3.68;93.63;99989.34;5309153;28;20011;-71
2022/01/08 14:55:57;;;;;;;8.07;6.65;;;;;;;3.66;94.09;99972.34;5315629;28;20020;-72
2022/01/08 14:58:29;;;;;;;5.03;3.60;;;;;;;3.74;94.54;99968.28;5317867;28;20044;-72
2022/01/08 15:01:00;;;;;;;5.32;4.15;;;;;;;3.77;94.84;99951.28;5296336;28;20032;-71
2022/01/08 15:03:32;;;;;;;4.78;4.25;;;;;;;3.79;94.65;99941.69;5294133;28;20502;-72
2022/01/08 15:06:03;;;;;;;6.57;4.18;;;;;;;3.80;94.59;99929.63;5288232;28;20056;-70
2022/01/08 15:08:35;;;;;;;5.63;4.50;;;;;;;3.78;93.98;99923.56;5292108;28;20079;-70
2022/01/08 15:11:06;;;;;;;5.82;4.68;;;;;;;3.86;95.13;99905.78;5296710;28;20040;-68
2022/01/08 15:13:38;;;;;;;6.85;5.30;;;;;;;3.82;94.83;99894.53;5296862;28;20028;-69
2022/01/08 15:16:12;;;;;;;9.13;5.97;;;;;;;3.87;95.40;99883.56;5294965;28;20508;-71
2022/01/08 15:18:43;;;;;;;7.90;4.90;;;;;;;3.83;94.55;99874.22;5295857;28;20058;-70
2022/01/08 15:21:15;;;;;;;6.47;4.28;;;;;;;3.84;95.44;99875.88;5301983;28;20047;-68
2022/01/08 15:23:46;;;;;;;5.78;4.22;;;;;;;3.93;95.17;99856.97;5308623;28;20024;-67
2022/01/08 15:26:18;;;;;;;6.47;3.90;;;;;;;3.94;95.39;99842.19;5290502;28;20012;-68
2022/01/08 15:28:49;;;;;;;5.90;3.92;;;;;;;3.97;94.80;99838.91;5290444;28;20043;-68
2022/01/08 15:31:20;;;;;;;5.50;4.20;;;;;;;3.99;94.77;99824.91;5320878;28;20165;-67
2022/01/08 15:33:52;;;;;;;5.88;3.80;;;;;;;3.96;95.22;99831.75;5323499;28;20105;-70
2022/01/08 15:36:23;;;;;;;5.05;3.40;;;;;;;3.90;95.34;99814.47;5301745;28;20103;-70
2022/01/08 15:38:54;;;;;;;3.88;3.45;;;;;;;3.91;95.97;99805.16;5307820;28;20608;-71
2022/01/08 15:41:26;;;;;;;3.78;3.08;;;;;;;3.92;96.10;99797.75;5319278;28;20020;-71
2022/01/08 15:43:57;;;;;;;3.70;3.30;;;;;;;3.91;96.06;99791.44;5301893;28;20040;-71
2022/01/08 15:46:29;;;;;;;3.78;3.47;;;;;;;3.92;96.07;99784.03;5297032;28;20021;-71
2022/01/08 15:49:00;;;;;;;4.53;3.10;;;;;;;3.99;96.09;99775.50;5305297;28;20032;-71
2022/01/08 15:51:32;;;;;;;3.50;3.20;;;;;;;3.99;96.44;99772.75;5317190;28;20016;-70
2022/01/08 15:54:05;;;;;;;4.30;3.83;;;;;;;4.05;96.71;99763.47;5302641;28;20025;-70
2022/01/08 15:56:39;;;;;;;3.92;3.20;;;;;;;4.13;96.81;99755.50;5312033;28;20034;-71
2022/01/08 15:59:10;;;;;;;3.70;3.30;;;;;;;4.04;96.01;99742.59;5306771;28;20052;-70
2022/01/08 16:01:42;;;;;;;7.10;3.13;;;;;;;4.04;96.66;99735.22;5317590;28;20387;-71
2022/01/08 16:04:13;;;;;;;4.05;3.05;;;;;;;4.12;96.79;99733.84;5308926;28;20470;-70
2022/01/08 16:06:46;;;;;;;3.10;2.80;;;;;;;4.08;96.16;99727.25;5292536;28;20403;-71
2022/01/08 16:09:17;;;;;;;2.58;2.38;;;;;;;4.17;96.48;99709.16;5315375;28;20028;-70
2022/01/08 16:11:49;;;;;;;5.00;3.05;;;;;;;4.18;96.55;99708.03;5299602;28;20420;-71
2022/01/08 16:14:20;;;;;;;3.38;2.47;;;;;;;4.21;96.24;99710.22;5311549;28;20051;-71
2022/01/08 16:16:51;;;;;;;2.58;2.38;;;;;;;4.22;95.92;99695.41;5319980;28;20224;-71
2022/01/08 16:19:22;;;;;;;2.45;2.15;;;;;;;4.24;95.90;99681.41;5292666;28;20390;-71
2022/01/08 16:21:54;;;;;;;3.63;2.47;;;;;;;4.26;96.06;99674.53;5320273;28;20024;-71
2022/01/08 16:24:25;;;;;;;3.05;2.45;;;;;;;4.29;96.34;99652.03;5320643;28;20027;-72
2022/01/08 16:26:56;;;;;;;3.80;2.75;;;;;;;4.34;96.03;99649.25;5305148;28;20029;-71
2022/01/08 16:29:28;;;;;;;3.00;2.20;;;;;;;4.39;96.22;99650.38;5306838;28;20019;-72
2022/01/08 16:31:59;;;;;;;2.72;2.03;;;;;;;4.44;95.91;99629.22;5320404;28;20463;-72
2022/01/08 16:34:30;;;;;;;2.05;1.90;;;;;;;4.44;95.84;99617.41;5320497;28;20031;-75
2022/01/08 16:37:01;;;;;;;3.58;2.20;;;;;;;4.48;95.78;99621.25;5311252;28;20032;-72
2022/01/08 16:39:33;;;;;;;2.38;2.08;;;;;;;4.57;95.58;99603.09;5322853;28;20493;-73
2022/01/08 16:42:04;;;;;;;3.55;2.15;;;;;;;4.56;95.54;99595.97;5316284;28;20024;-73
2022/01/08 16:44:36;;;;;;;4.00;2.97;;;;;;;4.52;95.53;99586.63;5290452;28;20040;-73
2022/01/08 16:47:07;;;;;;;3.67;2.40;;;;;;;4.56;95.89;99579.50;5313540;28;20130;-74
2022/01/08 16:49:38;;;;;;;36.38;28.55;;;;;;;4.57;95.53;99579.19;5321102;28;20020;-73
2022/01/08 16:52:10;;;;;;;4.28;2.33;;;;;;;4.66;96.19;99564.91;5299804;28;20028;-72
2022/01/08 16:54:42;;;;;;;2.20;2.00;;;;;;;4.62;96.21;99555.56;5311918;28;20024;-73
2022/01/08 16:57:14;;;;;;;2.97;2.22;;;;;;;4.65;96.33;99542.06;5315408;28;20047;-73
2022/01/08 16:59:45;;;;;;;2.22;2.03;;;;;;;4.66;96.34;99530.00;5306088;28;20039;-73
2022/01/08 17:02:16;;;;;;;3.38;2.80;;;;;;;4.68;96.24;99521.47;5290221;28;20110;-74
2022/01/08 17:04:48;;;;;;;2.38;2.00;;;;;;;4.68;96.34;99511.31;5285580;28;20039;-72
2022/01/08 17:07:19;;;;;;;2.53;2.20;;;;;;;4.80;96.86;99503.53;5299073;28;20027;-71
2022/01/08 17:09:51;;;;;;;2.00;1.90;;;;;;;4.84;95.89;99498.31;5305280;28;20083;-71
2022/01/08 17:12:22;;;;;;;4.00;2.28;;;;;;;4.82;95.50;99495.03;5326263;28;20024;-71
2022/01/08 17:14:55;;;;;;;1.90;1.70;;;;;;;4.83;95.40;99490.34;5310865;28;20024;-72
2022/01/08 17:17:26;;;;;;;2.40;2.10;;;;;;;4.89;96.00;99478.25;5307720;28;20027;-72
2022/01/08 17:19:58;;;;;;;2.28;1.90;;;;;;;4.90;95.83;99468.88;5291476;28;20506;-74
2022/01/08 17:22:29;;;;;;;3.13;2.03;;;;;;;4.86;95.26;99457.66;5290840;28;20044;-74
2022/01/08 17:25:01;;;;;;;12.45;4.22;;;;;;;4.85;95.29;99444.19;5319939;28;20047;-72
2022/01/08 17:27:33;;;;;;;7.60;2.65;;;;;;;4.92;95.91;99441.94;5312522;28;20041;-74
2022/01/08 17:30:05;;;;;;;2.60;2.08;;;;;;;4.87;95.72;99436.50;5313599;28;20024;-73
